Time;durP1;ratioP1;P1;durP2;ratioP2;P2;SDS_P1;SDS_P2;PMS_P1;PMS_P2;Temp;Humidity;BMP_temperature;BMP_pressure;BME280_temperature;BME280_humidity;BME280_pressure;Samples;Min_cycle;Max_cycle;Signal;HPM_P1;HPM_P2
2021/05/29 00:02:21;;;;;;;30.45;13.43;;;;;;;9.63;100.00;102236.16;6273431;28;20056;-76
2021/05/29 00:05:22;;;;;;;24.08;14.35;;;;;;;9.49;100.00;102238.22;6273009;28;20491;-76
2021/05/29 00:08:23;;;;;;;25.55;13.20;;;;;;;9.45;100.00;102239.25;6273182;28;20110;-76
2021/05/29 00:11:25;;;;;;;24.42;13.52;;;;;;;9.71;100.00;102241.19;6272849;28;20136;-76
2021/05/29 00:14:26;;;;;;;23.75;12.48;;;;;;;9.52;100.00;102235.53;6272625;28;20068;-76
2021/05/29 00:17:27;;;;;;;31.35;14.77;;;;;;;9.46;100.00;102225.22;6272903;28;20048;-76
2021/05/29 00:20:28;;;;;;;24.67;13.52;;;;;;;9.53;100.00;102221.50;6272562;28;20411;-76
2021/05/29 00:23:29;;;;;;;21.38;12.75;;;;;;;9.62;100.00;102223.91;6272510;28;20401;-75
2021/05/29 00:26:31;;;;;;;25.17;13.32;;;;;;;9.53;100.00;102220.66;6272765;28;20064;-76
2021/05/29 00:29:31;;;;;;;23.02;13.38;;;;;;;9.44;100.00;102224.38;6272346;28;20484;-76
2021/05/29 00:32:32;;;;;;;25.58;13.48;;;;;;;9.40;100.00;102220.09;6272620;28;20049;-76
2021/05/29 00:35:33;;;;;;;22.48;11.90;;;;;;;9.44;100.00;102216.50;6272128;28;20496;-76
2021/05/29 00:38:34;;;;;;;20.05;9.70;;;;;;;9.44;100.00;102219.13;6272416;28;20045;-76
2021/05/29 00:41:36;;;;;;;17.88;9.57;;;;;;;9.46;100.00;102221.72;6272336;28;20084;-75
2021/05/29 00:44:55;;;;;;;15.15;8.68;;;;;;;9.45;100.00;102218.25;6272132;28;20048;-76
2021/05/29 00:47:59;;;;;;;21.17;9.68;;;;;;;9.36;100.00;102221.09;6272051;28;20496;-76
2021/05/29 00:51:00;;;;;;;21.42;10.55;;;;;;;9.34;100.00;102226.34;6272136;28;20511;-76
2021/05/29 00:54:01;;;;;;;17.77;9.98;;;;;;;9.34;100.00;102222.88;6271240;28;20045;-76
2021/05/29 00:57:04;;;;;;;17.15;9.93;;;;;;;9.33;100.00;102235.13;6272032;28;20049;-76
2021/05/29 01:00:07;;;;;;;17.75;9.00;;;;;;;9.30;100.00;102229.09;6271755;28;20075;-76
2021/05/29 01:03:08;;;;;;;18.80;9.80;;;;;;;9.25;100.00;102236.22;6271726;28;20423;-76
2021/05/29 01:06:09;;;;;;;20.73;8.98;;;;;;;9.23;100.00;102238.88;6271803;28;20095;-76
2021/05/29 01:09:10;;;;;;;17.95;8.40;;;;;;;9.34;100.00;102242.09;6271868;28;20053;-76
2021/05/29 01:12:14;;;;;;;14.85;8.68;;;;;;;9.28;100.00;102244.03;6271467;28;20045;-76
2021/05/29 01:15:18;;;;;;;13.43;6.82;;;;;;;9.31;100.00;102236.94;6271564;28;20511;-76
2021/05/29 01:18:18;;;;;;;20.45;7.35;;;;;;;9.18;100.00;102232.03;6271120;28;20080;-76
2021/05/29 01:21:19;;;;;;;23.25;9.70;;;;;;;9.15;100.00;102227.72;6271619;28;20557;-76
2021/05/29 01:24:23;;;;;;;22.00;10.32;;;;;;;9.13;100.00;102225.13;6271620;28;20419;-76
2021/05/29 01:27:24;;;;;;;23.20;9.52;;;;;;;9.14;100.00;102231.25;6271254;28;20045;-76
2021/05/29 01:30:25;;;;;;;15.43;9.18;;;;;;;9.14;100.00;102231.25;6271338;28;20132;-76
2021/05/29 01:33:28;;;;;;;16.83;8.80;;;;;;;9.11;100.00;102226.06;6271048;28;20381;-76
2021/05/29 01:36:30;;;;;;;22.98;8.90;;;;;;;9.27;100.00;102227.44;6271336;28;20500;-75
2021/05/29 01:39:32;;;;;;;11.93;7.50;;;;;;;9.15;100.00;102225.09;6271077;28;20053;-76
2021/05/29 01:42:35;;;;;;;18.13;7.78;;;;;;;9.11;100.00;102232.16;6271511;28;20055;-76
2021/05/29 01:45:37;;;;;;;17.27;7.75;;;;;;;9.19;100.00;102226.75;6270920;28;20049;-75
2021/05/29 01:48:41;;;;;;;15.32;8.05;;;;;;;9.13;100.00;102222.50;6271179;28;20511;-76
2021/05/29 01:51:42;;;;;;;19.05;8.93;;;;;;;9.11;100.00;102223.44;6271198;28;20053;-76
2021/05/29 01:54:44;;;;;;;15.15;8.25;;;;;;;9.10;100.00;102227.81;6270558;28;20041;-76
2021/05/29 01:57:46;;;;;;;16.65;7.25;;;;;;;9.09;100.00;102233.09;6271137;28;20049;-76
2021/05/29 02:00:47;;;;;;;16.27;8.15;;;;;;;9.07;100.00;102235.75;6271128;28;20061;-76
2021/05/29 02:03:48;;;;;;;20.27;9.00;;;;;;;9.16;100.00;102229.44;6270868;28;20056;-76
2021/05/29 02:06:49;;;;;;;14.65;7.75;;;;;;;9.11;100.00;102223.44;6270972;28;20049;-76
2021/05/29 02:09:51;;;;;;;14.85;7.85;;;;;;;9.11;100.00;102228.69;6270902;28;20532;-76
2021/05/29 02:12:54;;;;;;;17.85;7.72;;;;;;;9.09;100.00;102223.47;6270907;28;20049;-76
2021/05/29 02:15:55;;;;;;;19.65;9.07;;;;;;;9.08;100.00;102223.50;6270794;28;20041;-76
2021/05/29 02:18:56;;;;;;;19.58;10.70;;;;;;;9.11;100.00;102221.66;6270585;28;20428;-76
2021/05/29 02:21:57;;;;;;;15.65;9.88;;;;;;;9.13;100.00;102224.28;6270925;28;20049;-76
2021/05/29 02:24:59;;;;;;;22.13;10.00;;;;;;;9.11;100.00;102234.78;6270499;28;20128;-76
2021/05/29 02:28:01;;;;;;;21.05;10.07;;;;;;;9.08;100.00;102237.50;6270830;28;20385;-75
2021/05/29 02:31:02;;;;;;;24.33;11.38;;;;;;;9.15;100.00;102238.19;6275165;28;20053;-76
2021/05/29 02:34:04;;;;;;;25.05;11.65;;;;;;;9.13;100.00;102238.25;6275100;28;20051;-76
2021/05/29 02:37:04;;;;;;;23.20;13.48;;;;;;;9.31;100.00;102236.94;6275242;28;20067;-76
2021/05/29 02:40:07;;;;;;;22.65;12.50;;;;;;;9.24;100.00;102239.75;6274751;28;20061;-76
2021/05/29 02:43:08;;;;;;;24.90;13.77;;;;;;;9.20;100.00;102245.97;6275226;28;20045;-75
2021/05/29 02:46:10;;;;;;;28.85;15.25;;;;;;;9.28;100.00;102251.91;6274614;28;20053;-76
2021/05/29 02:49:11;;;;;;;25.73;15.02;;;;;;;9.17;100.00;102248.66;6274890;28;20458;-76
2021/05/29 02:52:12;;;;;;;30.88;15.60;;;;;;;9.18;100.00;102243.38;6274567;28;20045;-76
2021/05/29 02:55:21;;;;;;;39.05;19.13;;;;;;;9.17;100.00;102246.88;6274380;28;20049;-76
2021/05/29 02:58:22;;;;;;;32.97;19.00;;;;;;;9.09;100.00;102240.97;6274631;28;20063;-76
2021/05/29 03:01:23;;;;;;;29.27;17.50;;;;;;;9.29;99.53;102245.75;6274427;28;20048;-76
2021/05/29 03:04:24;;;;;;;34.72;18.55;;;;;;;9.25;100.00;102249.34;6274353;28;20128;-75
2021/05/29 03:07:24;;;;;;;32.53;19.38;;;;;;;9.19;100.00;102249.50;6274573;28;20124;-76
2021/05/29 03:10:27;;;;;;;36.25;19.73;;;;;;;9.20;100.00;102252.06;6274350;28;20074;-76
2021/05/29 03:13:28;;;;;;;35.97;21.02;;;;;;;9.25;100.00;102249.34;6274346;28;20052;-76
2021/05/29 03:16:29;;;;;;;38.83;21.27;;;;;;;9.22;100.00;102259.88;6274083;28;20415;-76
2021/05/29 03:19:30;;;;;;;39.05;22.08;;;;;;;9.13;100.00;102263.63;6274011;28;20420;-76
2021/05/29 03:22:32;;;;;;;36.33;20.55;;;;;;;9.15;100.00;102260.03;6274157;28;20049;-76
2021/05/29 03:25:34;;;;;;;39.00;22.27;;;;;;;9.14;100.00;102254.84;6274016;28;20519;-76
2021/05/29 03:28:35;;;;;;;34.55;21.05;;;;;;;9.25;100.00;102262.44;6274107;28;20079;-76
2021/05/29 03:31:36;;;;;;;38.50;22.17;;;;;;;9.21;100.00;102259.03;6273652;28;20574;-76
2021/05/29 03:34:37;;;;;;;41.47;22.10;;;;;;;9.32;98.67;102266.66;6273729;28;20550;-76
2021/05/29 03:37:38;;;;;;;43.30;24.25;;;;;;;9.12;99.92;102254.84;6273595;28;20463;-76
2021/05/29 03:40:40;;;;;;;43.65;23.25;;;;;;;9.17;100.00;102265.25;6273440;28;20045;-76
2021/05/29 03:43:41;;;;;;;36.15;23.23;;;;;;;9.11;100.00;102263.63;6273538;28;20053;-75
2021/05/29 03:46:42;;;;;;;45.17;23.15;;;;;;;9.13;100.00;102266.25;6273316;28;20458;-75
2021/05/29 03:49:43;;;;;;;42.20;23.05;;;;;;;9.30;99.21;102271.06;6297537;22;20044;-79
2021/05/29 03:52:44;;;;;;;41.28;23.23;;;;;;;9.13;100.00;102264.47;6225386;28;20460;-78
2021/05/29 03:55:46;;;;;;;36.28;21.55;;;;;;;9.19;99.77;102268.72;6235649;28;20041;-77
2021/05/29 03:58:47;;;;;;;39.05;22.67;;;;;;;9.09;100.00;102265.44;6248879;28;20049;-79
2021/05/29 04:01:47;;;;;;;40.45;22.95;;;;;;;9.32;96.91;102264.91;6226378;28;20050;-77
2021/05/29 04:04:48;;;;;;;42.90;24.38;;;;;;;9.15;98.50;102264.44;6231773;28;20048;-79
2021/05/29 04:07:50;;;;;;;34.67;22.92;;;;;;;9.19;96.61;102271.34;6246177;28;20049;-77
2021/05/29 04:10:52;;;;;;;34.33;20.73;;;;;;;9.11;95.89;102268.03;6248298;28;20045;-79
2021/05/29 04:13:53;;;;;;;34.88;19.23;;;;;;;9.15;95.74;102264.44;6248260;28;20048;-78
2021/05/29 04:16:54;;;;;;;34.58;20.92;;;;;;;9.17;95.63;102267.00;6248549;28;20544;-76
2021/05/29 04:19:55;;;;;;;33.58;20.92;;;;;;;9.04;97.90;102261.19;6239760;28;20456;-76
2021/05/29 04:22:56;;;;;;;42.10;20.65;;;;;;;9.23;96.92;102269.50;6222294;28;20050;-76
2021/05/29 04:25:58;;;;;;;34.92;20.88;;;;;;;9.21;96.84;102268.66;6221857;28;20103;-76
2021/05/29 04:28:58;;;;;;;35.83;20.75;;;;;;;9.03;97.17;102273.44;6222280;28;20049;-79
2021/05/29 04:32:00;;;;;;;38.60;22.92;;;;;;;9.02;97.73;102276.94;6221802;28;20520;-77
2021/05/29 04:35:02;;;;;;;32.75;19.05;;;;;;;9.18;97.83;102274.00;6221686;28;20049;-76
2021/05/29 04:38:03;;;;;;;31.00;18.50;;;;;;;9.09;96.81;102269.81;6219186;28;20050;-77
2021/05/29 04:41:05;;;;;;;30.40;17.83;;;;;;;9.13;96.16;102274.09;6221929;28;20115;-76
2021/05/29 04:44:06;;;;;;;33.30;17.98;;;;;;;9.08;97.64;102278.56;6221811;28;20053;-77
2021/05/29 04:47:07;;;;;;;33.63;18.20;;;;;;;9.06;99.94;102280.38;6222472;28;20049;-76
2021/05/29 04:50:10;;;;;;;30.65;18.35;;;;;;;9.07;99.86;102282.09;6223907;28;20511;-79
2021/05/29 04:53:11;;;;;;;24.92;15.35;;;;;;;9.39;96.19;102281.34;6223539;28;20072;-78
2021/05/29 04:56:15;;;;;;;26.05;15.18;;;;;;;9.16;96.75;102289.75;6224100;28;20205;-78
2021/05/29 04:59:16;;;;;;;22.80;14.68;;;;;;;9.05;98.20;102295.25;6225070;28;20057;-79
2021/05/29 05:02:16;;;;;;;23.45;14.60;;;;;;;9.04;99.08;102301.41;6226820;28;20050;-79
2021/05/29 05:05:17;;;;;;;24.70;14.75;;;;;;;9.03;97.83;102298.78;6225413;28;20054;-78
2021/05/29 05:08:19;;;;;;;26.30;15.65;;;;;;;9.03;99.67;102310.13;6228629;28;20053;-77
2021/05/29 05:11:21;;;;;;;25.33;14.38;;;;;;;9.03;98.63;102304.03;6226932;28;20081;-79
2021/05/29 05:14:21;;;;;;;28.80;14.55;;;;;;;9.03;99.08;102304.03;6228309;28;20500;-79
2021/05/29 05:17:22;;;;;;;21.40;11.95;;;;;;;9.32;95.96;102301.63;6224079;28;20107;-76
2021/05/29 05:20:24;;;;;;;25.38;12.13;;;;;;;9.08;95.40;102308.31;6226598;28;20053;-78
2021/05/29 05:23:24;;;;;;;18.17;10.75;;;;;;;9.08;95.07;102300.44;6226407;28;20053;-78
2021/05/29 05:26:27;;;;;;;17.75;11.68;;;;;;;9.00;97.72;102312.84;6222848;28;20079;-77
2021/05/29 05:29:27;;;;;;;19.90;11.93;;;;;;;8.97;96.92;102317.28;6223242;28;20072;-78
2021/05/29 05:32:28;;;;;;;15.98;9.90;;;;;;;9.06;96.97;102311.84;6223533;28;20054;-78
2021/05/29 05:35:30;;;;;;;18.35;10.73;;;;;;;9.02;96.04;102318.03;6222088;28;20069;-78
2021/05/29 05:38:30;;;;;;;22.52;9.82;;;;;;;8.97;98.69;102325.16;6222889;28;20145;-77
2021/05/29 05:41:32;;;;;;;16.83;10.55;;;;;;;9.02;98.25;102323.28;6221997;28;20137;-76
2021/05/29 05:44:33;;;;;;;20.08;11.38;;;;;;;8.99;97.89;102331.22;6222084;28;20046;-77
2021/05/29 05:47:34;;;;;;;18.05;9.65;;;;;;;9.11;93.96;102325.72;6222155;28;20142;-76
2021/05/29 05:50:50;;;;;;;16.83;10.35;;;;;;;8.97;95.40;102323.38;6222153;28;20057;-77
2021/05/29 05:53:51;;;;;;;19.17;9.65;;;;;;;9.01;98.06;102316.31;6222359;28;20078;-79
2021/05/29 05:56:53;;;;;;;20.00;11.05;;;;;;;9.01;96.70;102322.44;6222272;28;20543;-77
2021/05/29 05:59:54;;;;;;;18.38;11.52;;;;;;;8.99;97.37;102313.72;6221963;28;20512;-78
2021/05/29 06:02:55;;;;;;;16.45;10.15;;;;;;;9.19;93.84;102313.31;6224866;28;20121;-78
2021/05/29 06:05:56;;;;;;;18.27;10.13;;;;;;;9.25;92.89;102328.88;6227290;28;20141;-78
2021/05/29 06:08:57;;;;;;;17.88;10.27;;;;;;;9.12;93.90;102336.16;6227020;28;20129;-78
2021/05/29 06:11:59;;;;;;;20.17;11.00;;;;;;;9.10;95.57;102334.47;6227076;28;20042;-79
2021/05/29 06:18:44;;;;;;;17.10;10.25;;;;;;;9.06;95.74;102333.69;6226724;28;20132;-77
2021/05/29 06:21:47;;;;;;;15.82;10.05;;;;;;;9.07;95.14;102331.91;6226682;28;20077;-79
2021/05/29 06:24:48;;;;;;;20.20;10.43;;;;;;;9.04;97.44;102338.09;6226372;28;20049;-79
2021/05/29 06:27:50;;;;;;;21.60;10.55;;;;;;;9.22;94.06;102346.44;6226442;28;20141;-77
2021/05/29 06:30:51;;;;;;;19.33;9.88;;;;;;;9.24;95.95;102349.91;6226113;28;20050;-77
2021/05/29 06:33:51;;;;;;;18.75;9.73;;;;;;;9.11;95.24;102347.56;6226212;28;20049;-77
2021/05/29 06:36:52;;;;;;;16.75;9.23;;;;;;;9.09;95.56;102345.88;6225947;28;20057;-76
2021/05/29 06:39:53;;;;;;;15.15;9.65;;;;;;;9.06;96.41;102351.19;6225956;28;20077;-79
2021/05/29 06:42:55;;;;;;;16.33;8.35;;;;;;;9.13;96.09;102358.03;6226397;28;20050;-78
2021/05/29 06:45:56;;;;;;;17.35;8.30;;;;;;;9.14;96.34;102355.38;6225698;28;20049;-77
2021/05/29 06:48:57;;;;;;;17.13;8.93;;;;;;;9.18;95.43;102360.56;6225869;28;20128;-79
2021/05/29 06:52:01;;;;;;;15.48;8.00;;;;;;;9.31;96.26;102367.22;6225482;28;20108;-76
2021/05/29 06:55:08;;;;;;;15.93;7.97;;;;;;;9.27;93.19;102360.34;6225286;28;20056;-76
2021/05/29 07:01:30;;;;;;;16.17;8.75;;;;;;;9.18;95.38;102364.03;6225610;28;20057;-78
2021/05/29 07:04:31;;;;;;;17.60;8.18;;;;;;;9.29;95.54;102366.41;6225399;28;20647;-78
2021/05/29 07:07:33;;;;;;;19.20;9.98;;;;;;;9.28;94.16;102364.69;6225572;28;20053;-78
2021/05/29 07:10:34;;;;;;;37.22;10.27;;;;;;;9.27;95.21;102366.47;6225204;28;20065;-78
2021/05/29 07:13:36;;;;;;;27.50;11.00;;;;;;;9.21;95.90;102376.22;6224920;28;20405;-78
2021/05/29 07:16:38;;;;;;;22.05;10.10;;;;;;;9.30;95.28;102362.88;6224614;28;20054;-76
2021/05/29 07:19:40;;;;;;;18.70;10.05;;;;;;;9.28;95.02;102372.56;6225041;28;20049;-79
2021/05/29 07:22:41;;;;;;;20.55;10.30;;;;;;;9.31;95.11;102373.38;6225255;28;20050;-78
2021/05/29 07:25:42;;;;;;;15.07;9.60;;;;;;;9.47;93.66;102373.88;6224542;28;20079;-77
2021/05/29 07:28:44;;;;;;;17.77;11.30;;;;;;;9.30;95.19;102371.63;6224818;28;20129;-78
2021/05/29 07:31:45;;;;;;;20.35;10.45;;;;;;;9.49;92.70;102381.72;6224585;28;20111;-77
2021/05/29 07:34:46;;;;;;;18.55;10.50;;;;;;;9.32;95.73;102380.34;6224574;28;20052;-79
2021/05/29 07:37:46;;;;;;;18.27;10.05;;;;;;;9.37;94.85;102386.34;6225888;28;20053;-78
2021/05/29 07:40:48;;;;;;;23.15;11.00;;;;;;;9.37;94.47;102377.63;6224817;28;20054;-78
2021/05/29 07:43:49;;;;;;;15.90;9.68;;;;;;;9.60;94.71;102382.34;6224443;28;20417;-78
2021/05/29 07:46:50;;;;;;;18.98;10.40;;;;;;;9.48;94.17;102383.47;6224313;28;20045;-79
2021/05/29 07:49:51;;;;;;;17.75;10.55;;;;;;;9.53;93.36;102383.38;6224071;28;20416;-78
2021/05/29 07:52:52;;;;;;;17.70;9.40;;;;;;;9.56;93.80;102396.44;6224405;28;20054;-79
2021/05/29 07:55:53;;;;;;;15.65;10.40;;;;;;;9.55;93.14;102398.19;6223574;28;20123;-79
2021/05/29 07:58:55;;;;;;;19.98;10.75;;;;;;;9.49;92.69;102397.44;6224406;28;20049;-78
2021/05/29 08:01:56;;;;;;;21.08;11.10;;;;;;;9.52;91.56;102405.25;6223942;28;20081;-78
2021/05/29 08:04:57;;;;;;;15.93;11.02;;;;;;;9.53;91.67;102397.34;6224068;28;20052;-78
2021/05/29 08:07:58;;;;;;;14.75;10.32;;;;;;;9.48;92.38;102406.22;6223981;28;20056;-78
2021/05/29 08:11:00;;;;;;;28.50;11.95;;;;;;;9.61;92.68;102408.53;6223830;28;20077;-76
2021/05/29 08:14:04;;;;;;;18.98;10.27;;;;;;;9.51;92.47;102399.16;6223052;28;20058;-78
2021/05/29 08:17:06;;;;;;;17.65;11.07;;;;;;;9.56;90.89;102409.56;6223277;28;20136;-78
2021/05/29 08:20:08;;;;;;;15.75;10.38;;;;;;;9.54;90.13;102414.00;6223565;28;20050;-78
2021/05/29 08:23:09;;;;;;;21.40;11.13;;;;;;;9.58;92.95;102415.63;6223383;28;20049;-78
2021/05/29 08:26:11;;;;;;;15.63;10.65;;;;;;;9.45;91.97;102422.03;6222209;28;20085;-79
2021/05/29 08:29:14;;;;;;;21.25;11.75;;;;;;;9.58;92.32;102427.00;6223402;28;20053;-77
2021/05/29 08:32:15;;;;;;;21.90;12.43;;;;;;;9.45;93.65;102433.41;6223573;28;20053;-78
2021/05/29 08:35:16;;;;;;;22.38;13.27;;;;;;;9.43;92.90;102432.56;6223311;28;20050;-77
2021/05/29 08:38:17;;;;;;;18.65;12.15;;;;;;;9.49;94.33;102428.94;6223741;28;20046;-76
2021/05/29 08:41:18;;;;;;;19.67;11.75;;;;;;;9.57;91.70;102435.75;6223317;28;20054;-79
2021/05/29 08:44:20;;;;;;;17.60;10.32;;;;;;;9.59;92.75;102438.38;6223245;28;20042;-79
2021/05/29 08:47:21;;;;;;;26.05;13.55;;;;;;;9.54;93.28;102445.47;6222832;28;20065;-76
2021/05/29 08:50:22;;;;;;;22.60;11.98;;;;;;;9.63;92.92;102437.41;6222659;28;20058;-78
2021/05/29 08:53:23;;;;;;;19.38;12.18;;;;;;;9.75;91.48;102447.59;6222641;28;20061;-76
2021/05/29 08:56:26;;;;;;;19.17;12.05;;;;;;;9.60;92.26;102446.19;6222886;28;20057;-77
2021/05/29 08:59:28;;;;;;;22.20;12.75;;;;;;;9.65;93.08;102452.19;6222527;28;20394;-77
2021/05/29 09:02:30;;;;;;;19.17;12.77;;;;;;;9.71;92.56;102459.06;6222899;28;20064;-77
2021/05/29 09:05:38;;;;;;;19.70;11.95;;;;;;;9.77;90.68;102450.22;6230458;28;20049;-79
2021/05/29 09:08:50;;;;;;;21.33;12.57;;;;;;;9.83;89.50;102455.31;6231412;28;20053;-77
2021/05/29 09:11:52;;;;;;;20.05;11.25;;;;;;;9.76;90.48;102457.19;6230007;28;20048;-77
2021/05/29 09:14:55;;;;;;;21.80;12.38;;;;;;;9.61;90.82;102455.78;6244935;28;20055;-76
2021/05/29 09:17:56;;;;;;;19.73;12.18;;;;;;;9.62;93.09;102454.88;6247007;28;20527;-77
2021/05/29 09:21:17;;;;;;;19.52;11.13;;;;;;;9.89;90.55;102450.78;6227462;28;20050;-77
2021/05/29 09:24:18;;;;;;;22.77;11.88;;;;;;;9.79;92.61;102456.28;6225362;28;20436;-78
2021/05/29 09:27:19;;;;;;;20.80;12.50;;;;;;;9.80;91.98;102450.13;6222729;28;20203;-78
2021/05/29 09:30:38;;;;;;;20.85;11.50;;;;;;;10.00;91.38;102458.44;6220659;28;20053;-78
2021/05/29 09:33:40;;;;;;;25.02;11.40;;;;;;;9.91;92.10;102461.28;6221299;28;20042;-74
2021/05/29 09:36:41;;;;;;;20.20;11.10;;;;;;;10.04;92.71;102462.72;6222318;28;20053;-77
2021/05/29 09:39:43;;;;;;;23.83;10.43;;;;;;;10.12;90.80;102458.13;6226967;28;20135;-77
2021/05/29 09:42:44;;;;;;;20.17;11.35;;;;;;;10.15;88.66;102458.06;6227481;28;20110;-76
2021/05/29 09:45:57;;;;;;;15.23;10.32;;;;;;;10.09;89.59;102462.59;6226621;28;20049;-76
2021/05/29 09:49:00;;;;;;;19.30;10.68;;;;;;;10.11;90.21;102463.41;6225425;28;20096;-78
2021/05/29 09:52:21;;;;;;;20.80;11.20;;;;;;;10.23;88.48;102464.91;6220713;22;20039;-79
2021/05/29 09:55:36;;;;;;;15.82;10.10;;;;;;;10.33;89.28;102463.78;6174680;28;20051;-77
2021/05/29 09:58:51;;;;;;;20.85;11.18;;;;;;;10.54;87.30;102473.78;6179103;28;20046;-78
2021/05/29 10:01:53;;;;;;;19.38;10.40;;;;;;;10.57;87.20;102472.81;6179021;28;20051;-78
2021/05/29 10:04:56;;;;;;;17.70;9.48;;;;;;;10.61;84.76;102471.84;6177704;28;20050;-77
2021/05/29 10:07:58;;;;;;;17.13;10.18;;;;;;;10.78;83.59;102471.41;6178456;28;20053;-78
2021/05/29 10:10:59;;;;;;;16.70;9.65;;;;;;;10.71;82.48;102470.69;6178749;28;20046;-78
2021/05/29 10:14:00;;;;;;;14.10;9.27;;;;;;;10.53;86.79;102471.16;6180333;28;20501;-78
2021/05/29 10:17:04;;;;;;;20.48;9.50;;;;;;;10.63;86.40;102467.44;6180140;28;20490;-78
2021/05/29 10:20:08;;;;;;;20.50;10.02;;;;;;;10.69;84.72;102469.03;6178856;28;20051;-77
2021/05/29 10:23:08;;;;;;;17.13;9.77;;;;;;;10.89;83.32;102471.97;6179166;28;20047;-78
2021/05/29 10:26:09;;;;;;;21.63;9.35;;;;;;;11.05;82.17;102468.03;6180032;28;20432;-78
2021/05/29 10:29:11;;;;;;;16.63;9.77;;;;;;;10.98;84.97;102471.72;6176122;28;20053;-77
2021/05/29 10:32:15;;;;;;;22.52;9.10;;;;;;;11.12;83.70;102464.31;6177618;28;20414;-77
2021/05/29 10:35:16;;;;;;;15.73;10.05;;;;;;;11.14;81.00;102469.56;6177677;28;20061;-78
2021/05/29 10:38:21;;;;;;;15.40;9.40;;;;;;;11.08;84.80;102469.69;6178719;28;20051;-78
2021/05/29 10:41:48;;;;;;;17.63;9.68;;;;;;;11.49;81.42;102468.53;6178569;28;20059;-80
2021/05/29 10:44:49;;;;;;;13.38;9.02;;;;;;;11.69;78.56;102463.53;6174598;28;20048;-80
2021/05/29 10:48:06;;;;;;;14.10;9.57;;;;;;;11.76;81.45;102471.22;6172897;28;20417;-82
2021/05/29 10:51:10;;;;;;;17.70;9.80;;;;;;;11.77;80.75;102465.06;6165480;28;20126;-82
2021/05/29 10:54:13;;;;;;;17.70;8.88;;;;;;;11.82;79.00;102476.34;6182343;28;20110;-84
2021/05/29 10:57:14;;;;;;;16.83;9.75;;;;;;;11.74;78.40;102473.91;6182173;28;20055;-81
2021/05/29 11:00:50;;;;;;;13.85;9.38;;;;;;;11.55;79.50;102472.75;6180774;28;20159;-79
2021/05/29 11:04:23;;;;;;;15.15;9.80;;;;;;;11.59;79.15;102470.00;6178510;28;20055;-82
2021/05/29 11:07:24;;;;;;;14.98;9.63;;;;;;;11.75;79.83;102474.78;6178583;28;20059;-80
2021/05/29 11:10:29;;;;;;;15.80;9.88;;;;;;;11.92;77.18;102462.00;6180538;28;20059;-81
2021/05/29 11:14:00;;;;;;;21.92;9.73;;;;;;;11.72;78.14;102465.22;6179299;28;20126;-83
2021/05/29 11:17:14;;;;;;;15.75;10.13;;;;;;;11.92;78.37;102469.91;6180252;28;20051;-83
2021/05/29 11:20:18;;;;;;;19.35;10.25;;;;;;;12.10;76.66;102473.72;6156360;28;20481;-79
2021/05/29 11:23:26;;;;;;;20.10;10.80;;;;;;;12.02;77.47;102468.69;6155260;28;20463;-81
2021/05/29 11:26:27;;;;;;;17.55;9.57;;;;;;;12.01;81.64;102466.97;6155202;28;20134;-84
2021/05/29 11:29:28;;;;;;;18.10;10.70;;;;;;;12.10;78.90;102471.09;6153788;28;20062;-81
2021/05/29 11:32:42;;;;;;;17.25;10.50;;;;;;;12.28;78.37;102464.34;6153371;28;20487;-78
2021/05/29 11:35:46;;;;;;;17.60;11.00;;;;;;;12.36;77.61;102455.28;6152837;28;20078;-79
2021/05/29 11:38:48;;;;;;;23.60;11.30;;;;;;;12.51;76.35;102459.16;6151999;28;20059;-76
2021/05/29 11:41:59;;;;;;;18.95;10.50;;;;;;;12.67;75.17;102463.03;6152243;28;20051;-76
2021/05/29 11:45:16;;;;;;;15.45;10.45;;;;;;;12.61;72.50;102449.16;6174918;28;20049;-77
2021/05/29 11:48:16;;;;;;;16.88;9.15;;;;;;;12.65;71.88;102456.06;6176122;28;20051;-76
2021/05/29 11:51:20;;;;;;;16.55;9.98;;;;;;;12.39;75.35;102451.66;6175617;28;20104;-75
2021/05/29 11:54:21;;;;;;;17.95;10.02;;;;;;;12.55;74.90;102452.03;6176090;28;20054;-76
2021/05/29 11:57:21;;;;;;;15.40;8.18;;;;;;;12.55;72.75;102452.03;6175635;28;20051;-77
2021/05/29 12:00:23;;;;;;;14.82;8.32;;;;;;;12.73;73.16;102451.38;6175884;28;20054;-79
2021/05/29 12:03:38;;;;;;;17.90;9.23;;;;;;;12.91;70.06;102457.78;6175302;28;20105;-74
2021/05/29 12:06:45;;;;;;;15.48;8.60;;;;;;;12.87;70.44;102454.41;6171619;28;20085;-76
2021/05/29 12:09:51;;;;;;;17.80;8.73;;;;;;;12.88;70.04;102455.25;6175170;28;20057;-75
2021/05/29 12:12:52;;;;;;;15.95;8.52;;;;;;;12.61;70.92;102460.56;6175833;28;20050;-74
2021/05/29 12:15:55;;;;;;;15.93;7.85;;;;;;;12.40;74.66;102453.41;6174928;28;20142;-73
2021/05/29 12:18:56;;;;;;;13.82;7.93;;;;;;;12.38;75.18;102458.72;6174878;28;20058;-77
2021/05/29 12:21:59;;;;;;;12.88;8.00;;;;;;;12.41;75.26;102460.41;6174917;28;20109;-77
2021/05/29 12:25:04;;;;;;;14.52;8.38;;;;;;;12.66;71.07;102460.41;6174698;28;20078;-76
2021/05/29 12:28:05;;;;;;;12.43;8.38;;;;;;;12.53;72.84;102454.69;6174926;28;20462;-77
2021/05/29 12:31:06;;;;;;;16.00;8.32;;;;;;;12.42;74.77;102460.34;6174441;28;20057;-76
2021/05/29 12:34:06;;;;;;;18.33;7.90;;;;;;;12.42;72.55;102460.34;6175257;28;20426;-77
2021/05/29 12:37:09;;;;;;;16.23;8.55;;;;;;;12.84;71.80;102453.63;6174141;28;20058;-77
2021/05/29 12:40:13;;;;;;;12.73;7.60;;;;;;;12.85;74.42;102460.63;6174971;28;20062;-77
2021/05/29 12:43:14;;;;;;;11.43;7.90;;;;;;;12.94;70.84;102463.84;6173923;28;20117;-77
2021/05/29 12:46:22;;;;;;;19.17;9.45;;;;;;;12.98;72.52;102458.41;6173859;28;20051;-77
2021/05/29 12:49:27;;;;;;;22.67;9.63;;;;;;;12.89;74.51;102460.47;6173394;28;20058;-77
2021/05/29 12:52:33;;;;;;;15.40;9.35;;;;;;;12.68;73.77;102461.25;6173946;28;20142;-77
2021/05/29 12:55:34;;;;;;;14.50;9.02;;;;;;;12.55;76.44;102465.22;6172337;28;20054;-78
2021/05/29 12:58:35;;;;;;;17.63;9.30;;;;;;;12.80;75.18;102467.84;6174589;28;20421;-78
2021/05/29 13:01:56;;;;;;;16.58;10.32;;;;;;;12.95;72.58;102472.59;6173968;28;20502;-75
2021/05/29 13:08:42;;;;;;;18.70;10.52;;;;;;;12.73;74.75;102469.84;6174039;28;20067;-77
2021/05/29 13:11:44;;;;;;;14.45;10.02;;;;;;;12.72;77.78;102472.53;6173546;28;20054;-77
2021/05/29 13:14:47;;;;;;;21.83;11.57;;;;;;;12.74;75.48;102475.97;6173958;28;20051;-76
2021/05/29 13:17:48;;;;;;;18.50;10.85;;;;;;;12.88;76.97;102471.94;6173731;28;20051;-77
2021/05/29 13:21:01;;;;;;;15.77;10.65;;;;;;;13.09;75.54;102472.97;6174464;28;20094;-76
2021/05/29 13:24:04;;;;;;;16.50;10.82;;;;;;;13.26;73.09;102466.22;6175304;28;20418;-77
2021/05/29 13:27:06;;;;;;;17.05;10.65;;;;;;;13.36;72.58;102465.84;6176033;28;20054;-78
2021/05/29 13:30:10;;;;;;;18.88;9.63;;;;;;;13.41;71.94;102469.16;6176207;28;20498;-77
2021/05/29 13:33:13;;;;;;;15.88;9.93;;;;;;;13.66;68.23;102457.66;6176547;28;20422;-78
2021/05/29 13:36:14;;;;;;;16.00;9.98;;;;;;;13.90;67.79;102467.28;6172852;28;20541;-79
2021/05/29 13:39:16;;;;;;;14.55;11.07;;;;;;;13.57;69.20;102466.78;6174053;28;20050;-80
2021/05/29 13:42:18;;;;;;;18.15;10.95;;;;;;;13.62;69.22;102466.63;6174658;28;20418;-78
2021/05/29 13:45:20;;;;;;;18.80;11.10;;;;;;;13.32;72.95;102463.38;6173217;28;20419;-78
2021/05/29 13:48:22;;;;;;;19.08;12.18;;;;;;;13.52;70.21;102471.41;6175602;28;20051;-78
2021/05/29 13:51:23;;;;;;;20.90;12.65;;;;;;;13.39;72.01;102468.34;6175134;28;20062;-78
2021/05/29 13:54:24;;;;;;;24.80;13.18;;;;;;;13.52;72.28;102474.03;6173616;28;20063;-77
2021/05/29 13:57:25;;;;;;;22.65;13.63;;;;;;;13.44;71.75;102469.06;6173062;28;20050;-78
2021/05/29 14:00:27;;;;;;;17.45;11.60;;;;;;;13.53;69.56;102467.81;6166988;28;20046;-78
2021/05/29 14:03:28;;;;;;;19.95;12.30;;;;;;;13.48;71.46;102466.28;6158817;28;20050;-78
2021/05/29 14:06:32;;;;;;;17.00;11.20;;;;;;;13.52;71.40;102466.09;6161415;28;20047;-78
2021/05/29 14:09:34;;;;;;;22.33;11.57;;;;;;;13.52;73.70;102465.25;6161506;28;20047;-78